Terminal Aerodrome Forecast
Issued by NWS

Home | Current Version | Previous Version | Graphics & Text | Print | Product List | Glossary On
Versions: 1 2 3 4 5 6 7 8 9 10 11 12 13 14 15 16 17 18 19 20 21
000
FTUS43 KDLH 051727
TAFBRD
TAF
KBRD 051727Z 0518/0618 21009G20KT P6SM BKN150
     FM052100 18015G27KT P6SM VCTS SCT050CB BKN070
     FM060400 17012KT 3SM -RA VCTS SCT015 OVC025CB
     FM060700 22009KT 3SM BR VCSH OVC025
     FM061400 35010KT P6SM SCT030 OVC070=

USA.gov is the U.S. government's official web portal to all federal, state and local government web resources and services.